Time;durP1;ratioP1;P1;durP2;ratioP2;P2;SDS_P1;SDS_P2;PMS_P1;PMS_P2;Temp;Humidity;BMP_temperature;BMP_pressure;BME280_temperature;BME280_humidity;BME280_pressure;Samples;Min_cycle;Max_cycle;Signal;HPM_P1;HPM_P2
2024/01/07 00:01:29;;;;;;;21.95;14.63;;;;;;;0.83;100.00;101726.31;5056540;28;20040;-79
2024/01/07 00:03:55;;;;;;;21.73;15.73;;;;;;;0.86;100.00;101731.63;5086558;28;20050;-79
2024/01/07 00:06:21;;;;;;;22.05;14.80;;;;;;;0.88;100.00;101736.91;5084866;28;20060;-79
2024/01/07 00:08:47;;;;;;;21.60;14.55;;;;;;;0.84;100.00;101730.69;5050611;28;20128;-80
2024/01/07 00:11:13;;;;;;;20.73;14.77;;;;;;;0.83;100.00;101736.75;5048152;28;20167;-80
2024/01/07 00:13:39;;;;;;;22.15;15.02;;;;;;;0.80;100.00;101731.44;5048235;28;20131;-80
2024/01/07 00:16:05;;;;;;;22.63;15.25;;;;;;;0.82;100.00;101743.69;5033991;28;20209;-80
2024/01/07 00:18:30;;;;;;;23.42;15.20;;;;;;;0.81;100.00;101747.13;5026077;28;20044;-80
2024/01/07 00:20:55;;;;;;;22.35;14.68;;;;;;;0.81;100.00;101743.63;5051722;28;20044;-80
2024/01/07 00:23:21;;;;;;;18.58;14.05;;;;;;;0.83;100.00;101747.19;5078124;28;20484;-80
2024/01/07 00:25:47;;;;;;;19.27;13.95;;;;;;;0.78;100.00;101741.81;5035585;28;20039;-80
2024/01/07 00:28:13;;;;;;;23.20;14.40;;;;;;;0.82;100.00;101745.41;5047404;28;20040;-80
2024/01/07 00:30:38;;;;;;;21.33;14.38;;;;;;;0.76;100.00;101737.38;5036538;28;20051;-80
2024/01/07 00:33:04;;;;;;;22.70;15.70;;;;;;;0.78;100.00;101747.03;5056191;28;20047;-80
2024/01/07 00:35:30;;;;;;;19.70;13.80;;;;;;;0.81;100.00;101759.28;5053237;28;20032;-79
2024/01/07 00:37:56;;;;;;;20.60;14.23;;;;;;;0.79;100.00;101761.84;5088350;28;20024;-80
2024/01/07 00:40:23;;;;;;;22.08;14.25;;;;;;;0.82;100.00;101768.88;5048254;28;20403;-80
2024/01/07 00:42:48;;;;;;;21.38;15.05;;;;;;;0.80;100.00;101766.22;5045907;28;20040;-80
2024/01/07 00:45:15;;;;;;;21.40;14.88;;;;;;;0.80;100.00;101767.94;5038597;28;20024;-80
2024/01/07 00:47:41;;;;;;;22.52;13.73;;;;;;;0.80;100.00;101770.56;5048051;28;20047;-79
2024/01/07 00:50:07;;;;;;;20.92;14.25;;;;;;;0.82;100.00;101776.72;5046260;28;20131;-80
2024/01/07 00:52:32;;;;;;;19.13;13.90;;;;;;;0.79;100.00;101774.88;5031893;28;20047;-79
2024/01/07 00:54:58;;;;;;;18.38;13.73;;;;;;;0.76;100.00;101766.94;5056504;28;20055;-79
2024/01/07 00:57:24;;;;;;;17.83;13.38;;;;;;;0.76;100.00;101771.28;5017305;28;20120;-80
2024/01/07 00:59:50;;;;;;;19.55;13.25;;;;;;;0.75;100.00;101775.63;5050854;28;20135;-79
2024/01/07 01:02:16;;;;;;;20.30;13.60;;;;;;;0.74;100.00;101780.75;5049448;28;20090;-79
2024/01/07 01:04:42;;;;;;;20.17;14.23;;;;;;;0.72;100.00;101785.03;5039612;28;20493;-80
2024/01/07 01:07:07;;;;;;;20.58;14.13;;;;;;;0.73;100.00;101779.00;5055720;28;20071;-80
2024/01/07 01:09:33;;;;;;;20.80;14.05;;;;;;;0.69;100.00;101778.00;5053507;28;20037;-80
2024/01/07 01:11:59;;;;;;;20.00;14.50;;;;;;;0.76;100.00;101792.13;5037640;28;20102;-80
2024/01/07 01:14:25;;;;;;;19.85;13.18;;;;;;;0.73;100.00;101790.31;5056101;28;20434;-79
2024/01/07 01:16:51;;;;;;;20.00;14.25;;;;;;;0.73;100.00;101795.53;5015642;28;20089;-80
2024/01/07 01:19:18;;;;;;;21.15;14.65;;;;;;;0.66;100.00;101790.94;5059814;28;20070;-80
2024/01/07 01:21:43;;;;;;;21.75;14.00;;;;;;;0.68;100.00;101793.59;5064904;28;20036;-79
2024/01/07 01:24:09;;;;;;;20.08;14.38;;;;;;;0.68;100.00;101797.09;5025914;28;20407;-79
2024/01/07 01:26:34;;;;;;;23.35;15.52;;;;;;;0.67;100.00;101803.16;5046439;28;20029;-79
2024/01/07 01:29:00;;;;;;;24.35;16.88;;;;;;;0.62;100.00;101805.59;5053299;28;20036;-80
2024/01/07 01:31:25;;;;;;;29.20;17.95;;;;;;;0.61;100.00;101801.19;5052644;28;20063;-79
2024/01/07 01:33:51;;;;;;;26.52;16.98;;;;;;;0.58;100.00;101803.72;5050890;28;20037;-80
2024/01/07 01:36:16;;;;;;;24.50;17.65;;;;;;;0.58;100.00;101800.22;5059447;28;20159;-80
2024/01/07 01:38:42;;;;;;;24.42;16.67;;;;;;;0.60;100.00;101806.38;5058915;28;20036;-80
2024/01/07 01:41:07;;;;;;;28.40;18.35;;;;;;;0.62;100.00;101813.41;5059460;28;20032;-80
2024/01/07 01:43:33;;;;;;;27.25;17.48;;;;;;;0.62;100.00;101812.53;5045143;28;20066;-79
2024/01/07 01:45:59;;;;;;;26.00;16.45;;;;;;;0.61;100.00;101822.06;5026364;28;20036;-79
2024/01/07 01:48:26;;;;;;;28.65;17.15;;;;;;;0.62;100.00;101815.16;5058612;28;20081;-80
2024/01/07 01:50:54;;;;;;;27.83;16.08;;;;;;;0.60;100.00;101824.63;5044701;28;20115;-80
2024/01/07 01:53:19;;;;;;;30.08;17.50;;;;;;;0.57;100.00;101834.94;5052429;28;20028;-80
2024/01/07 01:55:45;;;;;;;27.02;16.98;;;;;;;0.57;100.00;101835.84;5049879;28;20060;-80
2024/01/07 01:58:13;;;;;;;28.35;17.73;;;;;;;0.57;100.00;101829.72;5072019;28;20444;-80
2024/01/07 02:00:39;;;;;;;28.17;16.73;;;;;;;0.57;100.00;101832.31;5076554;28;20115;-81
2024/01/07 02:03:05;;;;;;;25.10;17.10;;;;;;;0.61;100.00;101835.09;5035703;28;20028;-80
2024/01/07 02:05:31;;;;;;;27.92;17.15;;;;;;;0.62;100.00;101841.22;5084201;28;20402;-80
2024/01/07 02:07:57;;;;;;;30.45;17.27;;;;;;;0.63;100.00;101837.75;5061620;28;20048;-80
2024/01/07 02:10:22;;;;;;;30.05;18.08;;;;;;;0.63;100.00;101845.59;5074973;28;20115;-80
2024/01/07 02:12:48;;;;;;;28.67;16.75;;;;;;;0.60;100.00;101848.97;5046657;28;20116;-81
2024/01/07 02:15:14;;;;;;;26.02;17.10;;;;;;;0.59;100.00;101847.22;5042699;28;20094;-80
2024/01/07 02:17:40;;;;;;;29.23;17.40;;;;;;;0.57;100.00;101843.66;5075604;28;20179;-80
2024/01/07 02:20:06;;;;;;;29.38;17.65;;;;;;;0.55;100.00;101841.84;5075650;28;20471;-80
2024/01/07 02:22:32;;;;;;;30.70;18.63;;;;;;;0.53;100.00;101846.09;5042162;28;20044;-80
2024/01/07 02:24:57;;;;;;;29.58;17.80;;;;;;;0.51;100.00;101851.25;5041866;28;20047;-80
2024/01/07 02:27:23;;;;;;;28.75;18.67;;;;;;;0.52;100.00;101842.63;5025881;28;20047;-79
2024/01/07 02:29:48;;;;;;;31.40;19.25;;;;;;;0.49;100.00;101836.38;5093577;28;20039;-80
2024/01/07 02:32:14;;;;;;;30.27;18.92;;;;;;;0.51;100.00;101853.84;5058730;28;20433;-80
2024/01/07 02:34:39;;;;;;;37.38;20.98;;;;;;;0.49;100.00;101850.31;5058692;28;20032;-80
2024/01/07 02:37:05;;;;;;;35.08;20.00;;;;;;;0.50;100.00;101852.09;5024863;28;20359;-80
2024/01/07 02:39:31;;;;;;;40.10;22.15;;;;;;;0.50;100.00;101854.69;5020758;28;20476;-80
2024/01/07 02:41:56;;;;;;;38.60;20.50;;;;;;;0.46;100.00;101859.75;5042034;28;20040;-80
2024/01/07 02:44:22;;;;;;;41.15;20.73;;;;;;;0.41;100.00;101857.84;5039183;28;20035;-80
2024/01/07 02:46:47;;;;;;;38.03;20.23;;;;;;;0.42;100.00;101874.38;5058447;28;20491;-81
2024/01/07 02:49:13;;;;;;;42.47;23.30;;;;;;;0.38;100.00;101868.16;5055193;28;20082;-80
2024/01/07 02:51:38;;;;;;;41.65;23.38;;;;;;;0.37;100.00;101875.91;5054898;28;20040;-81
2024/01/07 02:54:04;;;;;;;44.85;24.27;;;;;;;0.34;100.00;101873.22;5055104;28;20131;-80
2024/01/07 02:56:29;;;;;;;42.08;23.52;;;;;;;0.34;100.00;101871.47;5061220;28;20041;-79
2024/01/07 02:58:55;;;;;;;45.53;22.95;;;;;;;0.34;100.00;101876.69;5054965;28;20044;-80
2024/01/07 03:01:24;;;;;;;44.65;23.58;;;;;;;0.34;100.00;101866.28;5070150;28;20028;-80
2024/01/07 03:03:50;;;;;;;47.58;25.65;;;;;;;0.36;100.00;101879.38;5058278;28;20032;-80
2024/01/07 03:06:15;;;;;;;43.53;22.67;;;;;;;0.37;100.00;101882.03;5038313;28;20044;-79
2024/01/07 03:08:42;;;;;;;41.00;23.77;;;;;;;0.35;100.00;101881.09;5044450;28;20040;-80
2024/01/07 03:11:07;;;;;;;38.72;22.17;;;;;;;0.34;100.00;101875.81;5037991;28;20375;-80
2024/01/07 03:13:33;;;;;;;39.47;21.35;;;;;;;0.39;100.00;101877.75;5037941;28;20032;-80
2024/01/07 03:15:59;;;;;;;40.95;21.45;;;;;;;0.40;100.00;101879.53;5064421;28;20040;-80
2024/01/07 03:18:24;;;;;;;42.38;21.63;;;;;;;0.38;100.00;101872.50;5036865;28;20052;-79
2024/01/07 03:20:50;;;;;;;35.80;21.83;;;;;;;0.41;100.00;101883.91;5056957;28;20028;-79
2024/01/07 03:23:15;;;;;;;37.67;21.63;;;;;;;0.39;100.00;101888.16;5060905;28;20040;-80
2024/01/07 03:25:41;;;;;;;39.70;22.90;;;;;;;0.38;100.00;101889.03;5040866;28;20031;-80
2024/01/07 03:28:06;;;;;;;36.28;21.98;;;;;;;0.38;100.00;101886.41;5061109;28;20040;-80
2024/01/07 03:30:32;;;;;;;36.55;22.17;;;;;;;0.45;100.00;101897.06;5036825;28;20032;-80
2024/01/07 03:32:57;;;;;;;34.03;20.33;;;;;;;0.46;100.00;101888.41;5064935;28;20575;-81
2024/01/07 03:35:24;;;;;;;36.40;21.83;;;;;;;0.46;100.00;101891.00;5056370;28;20044;-79
2024/01/07 03:37:49;;;;;;;34.65;21.77;;;;;;;0.46;100.00;101901.44;5044672;28;20064;-80
2024/01/07 03:40:15;;;;;;;31.30;19.85;;;;;;;0.46;100.00;101902.31;5063333;28;20044;-78
2024/01/07 03:42:41;;;;;;;33.60;21.48;;;;;;;0.44;100.00;101903.97;5059579;28;20040;-79
2024/01/07 03:45:06;;;;;;;36.40;20.33;;;;;;;0.46;100.00;101904.94;5038627;28;20170;-79
2024/01/07 03:47:32;;;;;;;35.55;20.02;;;;;;;0.43;100.00;101905.69;5074499;28;20023;-79
2024/01/07 03:49:57;;;;;;;36.42;21.92;;;;;;;0.45;100.00;101910.09;5051120;28;20358;-79
2024/01/07 03:52:23;;;;;;;34.70;21.60;;;;;;;0.46;100.00;101906.66;5035544;28;20105;-79
2024/01/07 03:54:48;;;;;;;34.72;21.85;;;;;;;0.47;100.00;101911.94;5037473;28;20082;-79
2024/01/07 03:57:14;;;;;;;33.35;22.00;;;;;;;0.48;100.00;101913.69;5056674;28;20108;-80
2024/01/07 03:59:40;;;;;;;30.70;19.08;;;;;;;0.49;100.00;101925.88;5037352;28;20029;-80
2024/01/07 04:02:06;;;;;;;37.10;21.08;;;;;;;0.47;100.00;101922.34;5058784;28;20459;-80
2024/01/07 04:04:32;;;;;;;34.05;21.58;;;;;;;0.47;100.00;101922.34;5054642;28;20065;-80
2024/01/07 04:06:57;;;;;;;34.17;20.70;;;;;;;0.47;100.00;101919.75;5033422;28;20113;-80
2024/01/07 04:09:23;;;;;;;36.85;19.50;;;;;;;0.49;100.00;101930.22;5056528;28;20046;-80
2024/01/07 04:11:49;;;;;;;34.50;20.25;;;;;;;0.48;100.00;101933.66;5035541;28;20398;-80
2024/01/07 04:14:15;;;;;;;28.42;17.70;;;;;;;0.46;100.00;101928.38;5088193;28;20058;-80
2024/01/07 04:16:40;;;;;;;34.05;18.55;;;;;;;0.46;100.00;101936.19;5055874;28;20364;-79
2024/01/07 04:19:06;;;;;;;35.22;18.90;;;;;;;0.46;100.00;101937.94;5056664;28;20051;-80
2024/01/07 04:21:31;;;;;;;33.20;18.40;;;;;;;0.44;100.00;101937.84;5052530;28;20040;-79
2024/01/07 04:23:57;;;;;;;33.80;19.30;;;;;;;0.40;100.00;101938.59;5056746;28;20036;-79
2024/01/07 04:26:22;;;;;;;35.20;20.27;;;;;;;0.40;100.00;101949.91;5055472;28;20036;-80
2024/01/07 04:28:48;;;;;;;35.35;20.10;;;;;;;0.37;100.00;101947.19;5040307;28;20133;-79
2024/01/07 04:31:14;;;;;;;31.73;18.92;;;;;;;0.38;100.00;101953.28;5033968;28;20051;-79
2024/01/07 04:33:39;;;;;;;30.52;17.92;;;;;;;0.34;100.00;101954.88;5056861;28;20024;-80
2024/01/07 04:36:05;;;;;;;31.42;17.73;;;;;;;0.34;100.00;101960.06;5039832;28;20124;-79
2024/01/07 04:38:30;;;;;;;35.75;18.42;;;;;;;0.36;100.00;101960.16;5053615;28;20158;-80
2024/01/07 04:40:56;;;;;;;30.50;18.02;;;;;;;0.35;100.00;101964.47;5054452;28;20047;-79
2024/01/07 04:43:21;;;;;;;28.23;18.10;;;;;;;0.33;100.00;101960.91;5035029;28;20035;-80
2024/01/07 04:45:47;;;;;;;29.90;17.83;;;;;;;0.33;100.00;101971.34;5077571;28;20468;-79
2024/01/07 04:48:13;;;;;;;29.85;17.70;;;;;;;0.32;100.00;101964.38;5057924;28;20059;-80
2024/01/07 04:50:44;;;;;;;26.05;16.45;;;;;;;0.32;100.00;101980.00;5085996;28;20030;-79
2024/01/07 04:53:09;;;;;;;22.88;15.43;;;;;;;0.33;100.00;101978.28;5055056;28;20036;-80
2024/01/07 04:55:36;;;;;;;24.30;14.98;;;;;;;0.29;100.00;101977.25;5075114;28;20059;-80
2024/01/07 04:58:01;;;;;;;24.85;15.15;;;;;;;0.30;100.00;101973.84;5043292;28;20024;-80
2024/01/07 05:00:27;;;;;;;25.75;17.05;;;;;;;0.25;100.00;101975.38;5037396;28;20386;-80
2024/01/07 05:02:53;;;;;;;24.35;15.35;;;;;;;0.25;100.00;101978.00;5074185;28;20488;-80
2024/01/07 05:05:18;;;;;;;24.40;15.15;;;;;;;0.30;100.00;101983.38;5053798;28;20020;-79
2024/01/07 05:07:44;;;;;;;22.60;13.90;;;;;;;0.25;100.00;101977.06;5069128;28;20088;-80
2024/01/07 05:10:09;;;;;;;22.40;14.70;;;;;;;0.19;100.00;101973.41;5065256;28;20060;-80
2024/01/07 05:12:35;;;;;;;22.00;14.55;;;;;;;0.24;100.00;101989.22;5076872;28;20032;-80
2024/01/07 05:15:00;;;;;;;21.45;13.57;;;;;;;0.24;100.00;101989.22;5052420;28;20055;-79
2024/01/07 05:17:26;;;;;;;20.17;13.65;;;;;;;0.23;100.00;101995.28;5037602;28;20535;-81
2024/01/07 05:19:52;;;;;;;20.20;13.00;;;;;;;0.20;100.00;101992.56;5057350;28;20043;-80
2024/01/07 05:22:17;;;;;;;19.92;12.18;;;;;;;0.20;100.00;101989.94;5068007;28;20036;-80
2024/01/07 05:24:42;;;;;;;22.30;13.25;;;;;;;0.09;100.00;101986.91;5038531;28;20051;-80
2024/01/07 05:27:08;;;;;;;18.60;13.10;;;;;;;0.19;100.00;102009.00;5028847;28;20063;-80
2024/01/07 05:29:34;;;;;;;20.33;13.77;;;;;;;0.21;100.00;102010.81;5054788;28;20044;-80
2024/01/07 05:32:01;;;;;;;19.38;13.40;;;;;;;0.21;100.00;102009.94;5056466;28;20032;-80
2024/01/07 05:34:29;;;;;;;20.73;13.98;;;;;;;0.16;100.00;102007.16;5055593;28;20173;-80
2024/01/07 05:36:55;;;;;;;17.50;12.38;;;;;;;0.23;100.00;102015.22;5065976;28;20111;-80
2024/01/07 05:39:22;;;;;;;18.95;11.80;;;;;;;0.25;100.00;102030.09;5059574;28;20117;-80
2024/01/07 05:41:47;;;;;;;19.20;12.00;;;;;;;0.22;100.00;102027.34;5063387;28;20398;-80
2024/01/07 05:44:13;;;;;;;17.92;11.65;;;;;;;0.21;100.00;102028.19;5070574;28;20123;-80
2024/01/07 05:46:39;;;;;;;17.52;11.77;;;;;;;0.23;100.00;102036.94;5074303;28;20061;-80
2024/01/07 05:49:05;;;;;;;17.63;11.43;;;;;;;0.21;100.00;102038.59;5074046;28;20024;-80
2024/01/07 05:51:30;;;;;;;16.92;11.48;;;;;;;0.21;100.00;102047.31;5039769;28;20460;-80
2024/01/07 05:53:56;;;;;;;17.13;12.18;;;;;;;0.17;100.00;102040.22;5056377;28;20097;-81
2024/01/07 05:56:22;;;;;;;16.52;11.23;;;;;;;0.17;100.00;102042.81;5062852;28;20040;-79
2024/01/07 05:58:47;;;;;;;16.90;11.00;;;;;;;0.19;100.00;102043.75;5055897;28;20063;-80
2024/01/07 06:01:19;;;;;;;22.25;13.15;;;;;;;0.17;100.00;102053.25;5056364;28;20445;-80
2024/01/07 06:03:45;;;;;;;17.45;12.82;;;;;;;0.20;100.00;102049.88;5054168;28;20367;-80
2024/01/07 06:06:12;;;;;;;18.10;12.60;;;;;;;0.20;100.00;102065.50;5066846;28;20367;-82
2024/01/07 06:08:38;;;;;;;17.63;12.10;;;;;;;0.19;100.00;102050.69;5053207;28;20043;-80
2024/01/07 06:11:03;;;;;;;17.90;13.23;;;;;;;0.13;100.00;102055.66;5058928;28;20036;-80
2024/01/07 06:13:29;;;;;;;19.33;12.98;;;;;;;0.19;100.00;102066.31;5051686;28;20424;-81
2024/01/07 06:15:54;;;;;;;20.35;13.98;;;;;;;0.15;100.00;102060.09;5069530;28;20038;-81
2024/01/07 06:18:20;;;;;;;19.20;13.48;;;;;;;0.14;100.00;102067.84;5047878;28;20523;-79
2024/01/07 06:20:45;;;;;;;20.70;13.57;;;;;;;0.12;100.00;102065.16;5042065;28;20111;-80
2024/01/07 06:23:11;;;;;;;23.38;14.57;;;;;;;0.11;100.00;102075.53;5089841;28;20055;-80
2024/01/07 06:25:36;;;;;;;21.70;14.77;;;;;;;0.04;100.00;102077.00;5090155;28;20032;-80
2024/01/07 06:28:02;;;;;;;23.52;14.75;;;;;;;0.05;100.00;102084.00;5073149;28;20044;-81
2024/01/07 06:30:27;;;;;;;21.55;14.93;;;;;;;0.07;100.00;102091.84;5058689;28;20036;-80
2024/01/07 06:32:53;;;;;;;22.70;14.50;;;;;;;0.07;100.00;102092.75;5063714;28;20066;-80
2024/01/07 06:35:18;;;;;;;23.10;15.05;;;;;;;0.07;100.00;102097.06;5073575;28;20356;-80
2024/01/07 06:37:45;;;;;;;23.27;15.27;;;;;;;0.02;100.00;102099.47;5055299;28;20036;-80
2024/01/07 06:40:11;;;;;;;22.50;14.57;;;;;;;-0.02;100.00;102103.69;5051580;28;20557;-80
2024/01/07 06:42:37;;;;;;;19.90;14.05;;;;;;;-0.04;100.00;102113.13;5067558;28;20059;-80
2024/01/07 06:45:03;;;;;;;22.00;14.85;;;;;;;-0.09;100.00;102122.47;5055059;28;20387;-80
2024/01/07 06:47:29;;;;;;;19.77;14.27;;;;;;;-0.08;100.00;102120.75;5031547;28;20043;-80
2024/01/07 06:49:54;;;;;;;20.42;14.88;;;;;;;-0.09;100.00;102122.47;5058538;28;20103;-80
2024/01/07 06:52:20;;;;;;;21.42;14.40;;;;;;;-0.06;100.00;102129.53;5033272;28;20060;-79
2024/01/07 06:54:46;;;;;;;20.73;14.15;;;;;;;-0.06;100.00;102127.81;5045317;28;20501;-79
2024/01/07 06:57:12;;;;;;;19.48;14.43;;;;;;;-0.07;100.00;102127.75;5054997;28;20040;-81
2024/01/07 06:59:37;;;;;;;22.10;14.52;;;;;;;-0.08;100.00;102136.38;5061502;28;20043;-80
2024/01/07 07:02:03;;;;;;;19.85;13.52;;;;;;;-0.08;100.00;102141.59;5058197;28;20100;-80
2024/01/07 07:04:28;;;;;;;22.35;14.55;;;;;;;-0.11;100.00;102137.13;5042346;28;20043;-81
2024/01/07 07:06:54;;;;;;;20.35;14.75;;;;;;;-0.13;100.00;102133.56;5062210;28;20036;-80
2024/01/07 07:09:19;;;;;;;20.50;13.82;;;;;;;-0.09;100.00;102139.81;5068918;28;20115;-80
2024/01/07 07:11:45;;;;;;;23.30;14.32;;;;;;;-0.10;100.00;102143.22;5031863;28;20400;-80
2024/01/07 07:14:10;;;;;;;21.30;14.77;;;;;;;-0.08;100.00;102157.22;5057879;28;20088;-82
2024/01/07 07:16:36;;;;;;;16.63;12.68;;;;;;;-0.10;100.00;102145.84;5028281;28;20052;-80
2024/01/07 07:19:02;;;;;;;18.42;12.80;;;;;;;-0.13;100.00;102144.00;5041459;28;20514;-80
2024/01/07 07:21:27;;;;;;;17.67;13.52;;;;;;;-0.08;100.00;102171.13;5039643;28;20044;-80
2024/01/07 07:23:53;;;;;;;19.02;13.40;;;;;;;-0.09;100.00;102163.25;5027310;28;20404;-80
2024/01/07 07:26:19;;;;;;;16.98;12.68;;;;;;;-0.07;100.00;102170.31;5026125;28;20064;-80
2024/01/07 07:28:44;;;;;;;18.70;12.75;;;;;;;-0.12;100.00;102166.63;5050573;28;20063;-79
2024/01/07 07:31:13;;;;;;;20.08;13.10;;;;;;;-0.07;100.00;102166.81;5053123;28;20063;-80
2024/01/07 07:33:39;;;;;;;15.98;12.25;;;;;;;-0.07;100.00;102174.63;5054400;28;20394;-80
2024/01/07 07:36:05;;;;;;;16.20;12.77;;;;;;;-0.07;100.00;102178.13;5051018;28;20330;-80
2024/01/07 07:38:31;;;;;;;16.92;11.80;;;;;;;-0.11;100.00;102178.81;5031040;28;20089;-87
2024/01/07 07:40:56;;;;;;;19.55;12.77;;;;;;;-0.08;100.00;102186.72;5041384;28;20048;-87
2024/01/07 07:43:22;;;;;;;16.67;11.88;;;;;;;-0.10;100.00;102187.50;5084761;28;20042;-87
2024/01/07 07:45:47;;;;;;;17.70;12.20;;;;;;;-0.14;100.00;102191.69;5074937;28;20016;-87
2024/01/07 07:48:13;;;;;;;15.85;12.75;;;;;;;-0.15;100.00;102192.50;5055597;28;20036;-87
2024/01/07 07:50:40;;;;;;;16.05;11.68;;;;;;;-0.13;100.00;102211.69;5027011;28;20108;-88
2024/01/07 07:53:05;;;;;;;13.15;9.55;;;;;;;-0.08;100.00;102217.09;5054889;28;20455;-87
2024/01/07 07:55:31;;;;;;;16.33;11.75;;;;;;;-0.08;100.00;102224.91;5058533;28;20123;-88
2024/01/07 07:57:57;;;;;;;18.75;12.23;;;;;;;-0.10;100.00;102227.47;5038499;28;20085;-87
2024/01/07 08:00:23;;;;;;;18.63;12.98;;;;;;;-0.10;100.00;102218.75;5048703;28;20051;-88
2024/01/07 08:02:48;;;;;;;18.38;12.63;;;;;;;-0.06;100.00;102226.75;5056038;28;20036;-88
2024/01/07 08:05:14;;;;;;;17.60;11.23;;;;;;;-0.05;100.00;102232.84;5054853;28;20454;-88
2024/01/07 08:07:39;;;;;;;15.88;11.13;;;;;;;-0.08;100.00;102232.72;5051300;28;20051;-88
2024/01/07 08:10:06;;;;;;;17.80;11.38;;;;;;;-0.10;100.00;102235.28;5077072;28;20456;-88
2024/01/07 08:12:31;;;;;;;15.27;10.65;;;;;;;-0.11;100.00;102238.69;5055407;28;20032;-88
2024/01/07 08:14:57;;;;;;;16.73;11.50;;;;;;;-0.15;100.00;102236.75;5061294;28;20443;-88
2024/01/07 08:17:22;;;;;;;15.95;10.55;;;;;;;-0.11;100.00;102243.91;5053450;28;20043;-88
2024/01/07 08:19:48;;;;;;;19.50;12.07;;;;;;;-0.11;100.00;102243.91;5034604;28;20055;-88
2024/01/07 08:22:14;;;;;;;16.25;10.57;;;;;;;-0.09;100.00;102247.47;5051858;28;20513;-88
2024/01/07 08:24:39;;;;;;;19.80;10.50;;;;;;;-0.07;100.00;102253.63;5063235;28;20033;-88
2024/01/07 08:27:05;;;;;;;17.38;10.48;;;;;;;-0.08;100.00;102251.84;5044583;28;20047;-88
2024/01/07 08:29:30;;;;;;;16.30;10.38;;;;;;;-0.04;100.00;102253.75;5041389;28;20039;-88
2024/01/07 08:31:56;;;;;;;14.27;8.90;;;;;;;-0.05;100.00;102257.22;5057818;28;20127;-88
2024/01/07 08:34:21;;;;;;;14.68;10.65;;;;;;;-0.04;100.00;102264.19;5064850;28;20051;-87
2024/01/07 08:36:47;;;;;;;17.42;10.77;;;;;;;-0.07;100.00;102261.44;5052619;28;20067;-87
2024/01/07 08:39:15;;;;;;;15.27;9.80;;;;;;;-0.06;100.00;102273.63;5067008;28;20380;-88
2024/01/07 08:41:41;;;;;;;12.98;9.73;;;;;;;-0.11;100.00;102269.94;5068469;28;20126;-87
2024/01/07 08:44:10;;;;;;;17.20;10.77;;;;;;;-0.09;100.00;102275.22;5034379;28;20185;-87
2024/01/07 08:46:35;;;;;;;15.05;9.55;;;;;;;-0.09;100.00;102278.72;5064797;28;20412;-87
2024/01/07 08:49:01;;;;;;;15.55;9.65;;;;;;;-0.13;100.00;102286.31;5040704;28;20044;-87
2024/01/07 08:51:27;;;;;;;12.20;8.43;;;;;;;-0.13;100.00;102282.00;5037765;28;20037;-87
2024/01/07 08:53:58;;;;;;;13.43;9.15;;;;;;;-0.14;100.00;102289.75;5047183;28;20047;-86
2024/01/07 08:56:23;;;;;;;13.27;9.35;;;;;;;-0.12;100.00;102306.34;5049164;28;20056;-87
2024/01/07 08:58:49;;;;;;;11.48;8.27;;;;;;;-0.14;100.00;102302.78;5040805;28;20467;-87
2024/01/07 09:01:14;;;;;;;12.07;9.30;;;;;;;-0.15;100.00;102300.97;5068519;28;20047;-87
2024/01/07 09:03:41;;;;;;;12.55;9.02;;;;;;;-0.13;100.00;102304.53;5060724;28;20047;-87
2024/01/07 09:06:07;;;;;;;14.85;9.98;;;;;;;-0.15;100.00;102303.56;5055914;28;20124;-87
2024/01/07 09:08:34;;;;;;;11.25;7.93;;;;;;;-0.12;100.00;102314.16;5044129;28;20037;-88
2024/01/07 09:11:00;;;;;;;12.93;8.85;;;;;;;-0.15;100.00;102316.59;5037291;28;20062;-88
2024/01/07 09:13:26;;;;;;;12.32;7.70;;;;;;;-0.18;100.00;102319.06;5050615;28;20040;-88
2024/01/07 09:15:51;;;;;;;10.73;7.60;;;;;;;-0.19;100.00;102323.38;5045815;28;20427;-87
2024/01/07 09:18:17;;;;;;;11.13;7.20;;;;;;;-0.19;100.00;102325.13;5064594;28;20068;-87
2024/01/07 09:20:42;;;;;;;11.52;8.05;;;;;;;-0.18;100.00;102330.38;5050489;28;20037;-88
2024/01/07 09:23:07;;;;;;;9.20;7.05;;;;;;;-0.20;100.00;102336.31;5066347;28;20041;-87
2024/01/07 09:25:33;;;;;;;10.60;7.18;;;;;;;-0.24;100.00;102338.78;5043339;28;20031;-84
2024/01/07 09:27:58;;;;;;;9.75;7.07;;;;;;;-0.24;100.00;102346.59;5053343;28;20028;-85
2024/01/07 09:30:24;;;;;;;9.45;7.22;;;;;;;-0.27;100.00;102356.88;5049561;28;20398;-85
2024/01/07 09:32:50;;;;;;;10.23;7.15;;;;;;;-0.25;100.00;102359.53;5062189;28;20492;-85
2024/01/07 09:35:15;;;;;;;15.63;10.15;;;;;;;-0.25;100.00;102363.06;5023729;28;20029;-85
2024/01/07 09:37:41;;;;;;;12.48;8.30;;;;;;;-0.23;100.00;102360.50;5066818;28;20444;-86
2024/01/07 09:40:08;;;;;;;9.70;7.55;;;;;;;-0.19;100.00;102371.97;5064469;28;20454;-85
2024/01/07 09:42:33;;;;;;;9.75;7.95;;;;;;;-0.17;100.00;102372.91;5057745;28;20039;-85
2024/01/07 09:45:03;;;;;;;10.23;7.47;;;;;;;-0.18;100.00;102359.00;5066765;28;20119;-85
2024/01/07 09:47:29;;;;;;;10.35;7.40;;;;;;;-0.17;100.00;102367.69;5050060;28;20040;-86
2024/01/07 09:49:55;;;;;;;9.65;7.00;;;;;;;-0.19;100.00;102367.66;5065999;28;20028;-85
2024/01/07 09:52:21;;;;;;;10.80;7.35;;;;;;;-0.19;100.00;102379.78;5053447;28;20064;-86
2024/01/07 09:54:52;;;;;;;10.80;7.28;;;;;;;-0.24;100.00;102382.16;5066795;28;20033;-86
2024/01/07 09:57:18;;;;;;;10.70;6.90;;;;;;;-0.27;100.00;102390.72;5068523;28;20138;-86
2024/01/07 09:59:46;;;;;;;8.68;6.68;;;;;;;-0.29;100.00;102394.97;5065439;28;20479;-85
2024/01/07 10:02:12;;;;;;;9.85;7.25;;;;;;;-0.30;100.00;102398.38;5059444;28;20041;-85
2024/01/07 10:04:37;;;;;;;9.18;6.47;;;;;;;-0.33;100.00;102393.03;5067486;28;20127;-85
2024/01/07 10:07:03;;;;;;;10.27;6.82;;;;;;;-0.34;100.00;102399.06;5049481;28;20050;-85
2024/01/07 10:09:30;;;;;;;11.65;7.38;;;;;;;-0.39;100.00;102402.28;5071208;28;20067;-85
2024/01/07 10:11:55;;;;;;;12.02;7.65;;;;;;;-0.37;100.00;102401.53;5061672;28;20118;-87
2024/01/07 10:14:22;;;;;;;8.98;7.22;;;;;;;-0.36;100.00;102407.63;5055834;28;20075;-86
2024/01/07 10:16:50;;;;;;;9.68;7.55;;;;;;;-0.35;100.00;102407.66;5041674;28;20107;-86
2024/01/07 10:19:20;;;;;;;12.43;6.25;;;;;;;-0.37;100.00;102404.13;5058299;28;20053;-86
2024/01/07 10:21:46;;;;;;;11.40;8.50;;;;;;;-0.40;100.00;102405.69;5055199;28;20094;-86
2024/01/07 10:24:13;;;;;;;10.68;7.70;;;;;;;-0.37;100.00;102421.44;5032732;28;20044;-85
2024/01/07 10:26:41;;;;;;;15.68;11.82;;;;;;;-0.36;100.00;102418.91;5053619;28;20028;-85
2024/01/07 10:29:10;;;;;;;13.00;8.32;;;;;;;-0.37;100.00;102417.16;5064305;28;20057;-86
2024/01/07 10:31:39;;;;;;;10.57;7.72;;;;;;;-0.36;100.00;102415.44;5054120;28;20124;-86
2024/01/07 10:34:08;;;;;;;10.93;7.72;;;;;;;-0.35;100.00;102409.38;5066894;28;20040;-86
2024/01/07 10:36:37;;;;;;;13.00;8.23;;;;;;;-0.35;100.00;102423.28;5038744;28;20108;-84
2024/01/07 10:39:03;;;;;;;9.80;7.90;;;;;;;-0.38;100.00;102410.13;5048427;28;20400;-85
2024/01/07 10:41:30;;;;;;;11.70;7.72;;;;;;;-0.36;100.00;102418.03;5048979;28;20085;-86
2024/01/07 10:43:55;;;;;;;11.23;7.80;;;;;;;-0.36;100.00;102408.50;5043484;28;20044;-85
2024/01/07 10:46:21;;;;;;;9.77;7.47;;;;;;;-0.31;100.00;102414.81;5059078;28;20032;-85
2024/01/07 10:48:54;;;;;;;12.05;8.00;;;;;;;-0.24;100.00;102419.50;5033592;28;20029;-85
2024/01/07 10:51:21;;;;;;;10.40;7.18;;;;;;;-0.20;100.00;102410.13;5042454;28;20029;-85
2024/01/07 10:53:54;;;;;;;11.43;8.38;;;;;;;-0.19;100.00;102406.72;5032409;28;20122;-85
2024/01/07 10:56:24;;;;;;;14.90;8.90;;;;;;;-0.16;100.00;102417.25;5053843;28;20083;-84
2024/01/07 10:58:57;;;;;;;11.13;7.55;;;;;;;-0.11;100.00;102414.88;5058791;28;20043;-85
2024/01/07 11:01:23;;;;;;;13.15;8.00;;;;;;;-0.10;100.00;102414.03;5055267;28;20071;-85
2024/01/07 11:04:22;;;;;;;11.43;7.93;;;;;;;-0.13;100.00;102417.41;5061637;28;20553;-85